Airport View

Enter AWOS ICAO identifier for current METAR.

ex. KFNL

CYVR 080500Z 07005KT 15SM -RA BKN040 OVC051 15/13 A3015 RMK SC6SC2 SLP212

8 Aug 2020 06:19

Other Area AWOS: CWVF - CWWA - CWWK - CWMM

TAF CYVR 080538Z 0806/0912 07005KT P6SM FEW030 OVC050 TEMPO 0806/0808 P6SM -RA SCT020 OVC030 FM080800 12007KT P6SM FEW008 SCT015 OVC030 TEMPO 0808/0815 BKN015 FM082000 27010KT P6SM FEW020 SCT050 FM090600 32007KT P6SM FEW020 BKN050 RMK NXT FCST BY 080900Z